Time;durP1;ratioP1;P1;durP2;ratioP2;P2;SDS_P1;SDS_P2;PMS_P1;PMS_P2;Temp;Humidity;BMP_temperature;BMP_pressure;BME280_temperature;BME280_humidity;BME280_pressure;Samples;Min_cycle;Max_cycle;Signal;HPM_P1;HPM_P2
2023/04/27 00:02:12;;;;;;;6.83;2.90;;;4.30;99.90;;;;;;4956638;28;20206;-58
2023/04/27 00:04:40;;;;;;;3.80;2.20;;;4.20;99.90;;;;;;4949082;28;20214;-61
2023/04/27 00:07:07;;;;;;;2.57;2.37;;;4.20;99.90;;;;;;4959679;28;20226;-56
2023/04/27 00:09:35;;;;;;;6.77;2.57;;;4.20;99.90;;;;;;4939585;28;20300;-60
2023/04/27 00:12:02;;;;;;;4.90;2.60;;;4.20;99.90;;;;;;4976588;28;20229;-59
2023/04/27 00:14:29;;;;;;;2.70;2.40;;;4.20;99.90;;;;;;4952985;28;20206;-59
2023/04/27 00:16:56;;;;;;;5.10;2.53;;;4.10;99.90;;;;;;4966179;28;20299;-61
2023/04/27 00:19:22;;;;;;;4.37;2.33;;;4.00;99.90;;;;;;4947687;28;20225;-58
2023/04/27 00:21:50;;;;;;;2.97;2.17;;;4.00;99.90;;;;;;4963782;28;20924;-61
2023/04/27 00:24:17;;;;;;;6.23;2.63;;;4.10;99.90;;;;;;4948946;28;20210;-61
2023/04/27 00:26:43;;;;;;;4.20;2.50;;;4.00;99.90;;;;;;4971824;28;20964;-63
2023/04/27 00:29:11;;;;;;;5.63;2.53;;;4.00;99.90;;;;;;4942902;28;20750;-61
2023/04/27 00:31:39;;;;;;;5.73;2.30;;;4.00;99.90;;;;;;4946689;28;20201;-62
2023/04/27 00:34:06;;;;;;;6.57;2.80;;;4.00;99.90;;;;;;4933704;28;20209;-60
2023/04/27 00:36:34;;;;;;;4.23;2.93;;;3.90;99.90;;;;;;4920833;28;20321;-59
2023/04/27 00:39:03;;;;;;;7.27;2.80;;;3.90;99.90;;;;;;4946925;28;20229;-59
2023/04/27 00:41:32;;;;;;;4.93;2.70;;;3.80;99.90;;;;;;4961739;28;20933;-59
2023/04/27 00:43:58;;;;;;;7.87;2.40;;;3.90;99.90;;;;;;4949591;28;20661;-60
2023/04/27 00:46:26;;;;;;;5.87;2.73;;;3.80;99.90;;;;;;4967090;28;20224;-58
2023/04/27 00:48:55;;;;;;;3.23;2.93;;;3.80;99.90;;;;;;4951108;28;20213;-57
2023/04/27 00:51:26;;;;;;;6.77;2.80;;;3.70;99.90;;;;;;4933063;28;20198;-58
2023/04/27 00:53:53;;;;;;;6.10;2.77;;;3.70;99.90;;;;;;4966104;28;20190;-61
2023/04/27 00:56:22;;;;;;;5.47;3.03;;;3.70;99.90;;;;;;4961755;28;20222;-59
2023/04/27 00:58:49;;;;;;;5.37;2.60;;;3.70;99.90;;;;;;4961211;28;20996;-60
2023/04/27 01:01:16;;;;;;;3.73;3.10;;;3.60;99.90;;;;;;4952276;28;20206;-56
2023/04/27 01:03:43;;;;;;;3.20;2.90;;;3.60;99.90;;;;;;4957877;28;20189;-59
2023/04/27 01:06:10;;;;;;;6.97;3.70;;;3.60;99.90;;;;;;4944562;28;20714;-60
2023/04/27 01:08:37;;;;;;;4.07;2.83;;;3.50;99.90;;;;;;4985455;28;20204;-61
2023/04/27 01:11:04;;;;;;;6.23;2.50;;;3.60;99.90;;;;;;4950887;28;20224;-60
2023/04/27 01:13:33;;;;;;;7.40;3.50;;;3.50;99.90;;;;;;4952781;28;20198;-60
2023/04/27 01:16:01;;;;;;;4.57;3.13;;;3.50;99.90;;;;;;4957669;28;20820;-58
2023/04/27 01:18:28;;;;;;;5.67;2.80;;;;;;;;;;4951296;28;20512;-55
2023/04/27 01:20:56;;;;;;;4.37;2.80;;;3.40;99.90;;;;;;4927578;28;20202;-60
2023/04/27 01:23:26;;;;;;;8.80;3.20;;;3.40;99.90;;;;;;4977271;28;20201;-55
2023/04/27 01:25:53;;;;;;;4.73;2.80;;;3.40;99.90;;;;;;4923148;28;20229;-62
2023/04/27 01:28:20;;;;;;;3.43;2.97;;;3.40;99.90;;;;;;4950255;28;20190;-59
2023/04/27 01:30:48;;;;;;;5.60;3.17;;;3.40;99.90;;;;;;4960883;28;20190;-61
2023/04/27 01:33:14;;;;;;;7.07;2.93;;;3.40;99.90;;;;;;4939718;28;20202;-60
2023/04/27 01:35:41;;;;;;;3.80;3.00;;;3.30;99.90;;;;;;4953676;28;20387;-62
2023/04/27 01:38:08;;;;;;;4.90;3.20;;;3.30;99.90;;;;;;4937107;28;20218;-61
2023/04/27 01:40:37;;;;;;;3.07;2.77;;;3.40;99.90;;;;;;4962258;28;20870;-55
2023/04/27 01:43:04;;;;;;;6.70;3.63;;;3.40;99.90;;;;;;4920632;28;20202;-56
2023/04/27 01:45:31;;;;;;;6.93;4.03;;;3.50;99.90;;;;;;4969996;28;20928;-54
2023/04/27 01:48:00;;;;;;;4.53;3.27;;;3.50;99.90;;;;;;4979461;28;20191;-60
2023/04/27 01:50:27;;;;;;;6.50;3.13;;;3.50;99.90;;;;;;4930832;28;20214;-60
2023/04/27 01:52:54;;;;;;;5.93;3.13;;;3.50;99.90;;;;;;4933976;28;20218;-56
2023/04/27 01:55:21;;;;;;;4.77;3.20;;;3.50;99.90;;;;;;4957133;28;20218;-61
2023/04/27 01:57:49;;;;;;;5.27;3.17;;;3.50;99.90;;;;;;4922352;28;20221;-61
2023/04/27 02:00:17;;;;;;;6.17;3.07;;;3.50;99.90;;;;;;4950322;28;20198;-65
2023/04/27 02:02:49;;;;;;;9.13;4.00;;;3.50;99.90;;;;;;4963202;28;20202;-64
2023/04/27 02:05:17;;;;;;;9.20;4.50;;;3.50;99.90;;;;;;4955315;28;20245;-65
2023/04/27 02:07:45;;;;;;;7.70;4.00;;;3.50;99.90;;;;;;4944280;28;23274;-65
2023/04/27 02:10:12;;;;;;;9.87;3.30;;;3.50;99.90;;;;;;4969497;28;20208;-60
2023/04/27 02:12:39;;;;;;;3.63;2.97;;;3.50;99.90;;;;;;4919524;28;21090;-54
2023/04/27 02:15:09;;;;;;;4.53;3.47;;;3.50;99.90;;;;;;4956120;28;20201;-60
2023/04/27 02:17:38;;;;;;;6.33;2.30;;;3.60;99.90;;;;;;4895513;28;1413256;-57
2023/04/27 02:20:07;;;;;;;6.23;1.60;;;3.60;99.90;;;;;;4940096;28;20205;-54
2023/04/27 02:22:34;;;;;;;2.53;1.80;;;3.70;99.90;;;;;;4953785;28;20214;-59
2023/04/27 02:25:02;;;;;;;3.63;1.60;;;3.80;99.90;;;;;;4953305;28;20714;-60
2023/04/27 02:27:29;;;;;;;3.73;2.00;;;3.90;99.90;;;;;;4955189;28;20241;-62
2023/04/27 02:29:57;;;;;;;4.73;2.00;;;4.00;99.90;;;;;;4970652;28;20200;-58
2023/04/27 02:32:26;;;;;;;2.57;2.37;;;4.00;99.90;;;;;;4984499;28;20206;-62
2023/04/27 02:34:54;;;;;;;5.83;2.60;;;4.10;99.90;;;;;;4939243;28;20257;-59
2023/04/27 02:37:21;;;;;;;5.70;2.83;;;4.00;99.90;;;;;;4938272;28;20925;-60
2023/04/27 02:39:47;;;;;;;5.07;3.60;;;4.00;99.90;;;;;;4949298;28;20225;-59
2023/04/27 02:42:15;;;;;;;4.27;3.47;;;3.90;99.90;;;;;;4974491;28;20209;-62
2023/04/27 02:44:42;;;;;;;5.77;2.80;;;3.90;99.90;;;;;;4925673;28;20217;-58
2023/04/27 02:47:09;;;;;;;5.03;3.30;;;3.80;99.90;;;;;;4948005;28;20214;-60
2023/04/27 02:49:38;;;;;;;4.03;2.67;;;3.80;99.90;;;;;;4936240;28;20190;-58
2023/04/27 02:52:05;;;;;;;6.90;3.67;;;3.80;99.90;;;;;;4957218;28;20775;-58
2023/04/27 02:54:32;;;;;;;4.53;3.03;;;3.80;99.90;;;;;;4922276;28;20214;-57
2023/04/27 02:57:00;;;;;;;5.37;3.20;;;3.70;99.90;;;;;;4947176;28;20651;-58
2023/04/27 02:59:29;;;;;;;5.43;3.00;;;3.70;99.90;;;;;;4955588;28;20295;-59
2023/04/27 03:01:56;;;;;;;6.60;3.53;;;3.70;99.90;;;;;;4980157;28;20205;-58
2023/04/27 03:04:23;;;;;;;4.37;3.30;;;3.70;99.90;;;;;;4955195;28;20201;-59
2023/04/27 03:06:51;;;;;;;4.50;3.43;;;3.70;99.90;;;;;;4953895;28;20222;-59
2023/04/27 03:09:17;;;;;;;3.37;2.93;;;3.70;99.90;;;;;;4950791;28;20666;-58
2023/04/27 03:11:44;;;;;;;5.90;2.97;;;3.70;99.90;;;;;;4936813;28;20213;-59
2023/04/27 03:14:12;;;;;;;6.57;3.20;;;3.70;99.90;;;;;;4931297;28;20198;-59
2023/04/27 03:16:39;;;;;;;4.70;3.50;;;3.70;99.90;;;;;;4959883;28;20221;-53
2023/04/27 03:19:06;;;;;;;6.27;3.30;;;3.70;99.90;;;;;;4958264;28;20329;-59
2023/04/27 03:21:33;;;;;;;6.87;3.17;;;3.70;99.90;;;;;;4920225;29;20224;-57
2023/04/27 03:24:02;;;;;;;9.87;3.10;;;3.60;99.90;;;;;;4932863;28;20281;-58
2023/04/27 03:26:29;;;;;;;3.50;2.53;;;3.70;99.90;;;;;;4948239;28;20233;-52
2023/04/27 03:28:57;;;;;;;5.60;2.50;;;3.60;99.90;;;;;;4979124;28;20232;-51
2023/04/27 03:31:24;;;;;;;5.40;3.17;;;3.60;99.90;;;;;;4947543;28;20899;-49
2023/04/27 03:33:51;;;;;;;10.67;3.40;;;3.50;99.90;;;;;;4956318;28;20207;-59
2023/04/27 03:36:18;;;;;;;4.17;3.00;;;3.40;99.90;;;;;;4923689;28;20225;-60
2023/04/27 03:38:45;;;;;;;5.77;3.40;;;3.40;99.90;;;;;;4946863;28;20226;-56
2023/04/27 03:41:14;;;;;;;5.30;2.93;;;3.40;99.90;;;;;;4955452;28;20213;-58
2023/04/27 03:43:41;;;;;;;5.53;3.30;;;3.40;99.90;;;;;;4944939;28;20923;-59
2023/04/27 03:46:08;;;;;;;6.47;3.30;;;3.30;99.90;;;;;;4930570;28;20678;-60
2023/04/27 03:48:35;;;;;;;6.40;3.10;;;3.30;99.90;;;;;;4945949;28;20199;-61
2023/04/27 03:51:02;;;;;;;5.40;3.10;;;3.30;99.90;;;;;;4939616;28;20624;-55
2023/04/27 03:53:29;;;;;;;3.97;2.80;;;3.30;99.90;;;;;;4958504;28;20221;-58
2023/04/27 03:55:56;;;;;;;3.00;2.70;;;3.30;99.90;;;;;;4958280;28;20284;-50
2023/04/27 03:58:24;;;;;;;5.27;2.80;;;3.20;99.90;;;;;;4937214;28;20231;-59
2023/04/27 04:01:09;;;;;;;3.67;2.80;;;3.20;99.90;;;;;;4963508;28;20760;-56
2023/04/27 04:03:37;;;;;;;3.10;2.80;;;3.10;99.90;;;;;;4943446;28;20270;-58
2023/04/27 04:06:08;;;;;;;5.07;3.30;;;3.10;99.90;;;;;;4943138;28;20634;-55
2023/04/27 04:08:35;;;;;;;8.23;3.73;;;3.10;99.90;;;;;;4939652;28;20569;-60
2023/04/27 04:11:01;;;;;;;7.50;3.80;;;3.20;99.90;;;;;;4959862;28;20688;-59
2023/04/27 04:13:30;;;;;;;6.53;3.70;;;3.20;99.90;;;;;;4942696;28;20218;-57
2023/04/27 04:16:01;;;;;;;5.77;3.40;;;3.20;99.90;;;;;;4904834;28;20213;-47
2023/04/27 04:18:28;;;;;;;6.37;3.67;;;3.20;99.90;;;;;;4937042;28;20238;-43
2023/04/27 04:20:55;;;;;;;6.33;3.40;;;3.20;99.90;;;;;;4946361;28;20218;-50
2023/04/27 04:23:22;;;;;;;5.30;2.87;;;3.30;99.90;;;;;;4946232;28;20237;-46
2023/04/27 04:25:49;;;;;;;5.83;3.13;;;3.30;99.90;;;;;;4934430;28;20380;-51
2023/04/27 04:28:17;;;;;;;4.57;3.10;;;3.30;99.90;;;;;;4937662;28;20409;-47
2023/04/27 04:30:45;;;;;;;5.50;3.67;;;3.30;99.90;;;;;;4936334;28;21265;-48
2023/04/27 04:33:12;;;;;;;4.80;3.57;;;3.40;99.90;;;;;;4948181;28;20381;-43
2023/04/27 04:35:40;;;;;;;6.80;3.77;;;3.40;99.90;;;;;;4948367;28;20213;-51
2023/04/27 04:38:08;;;;;;;5.50;3.63;;;3.50;99.90;;;;;;4927319;28;20234;-42
2023/04/27 04:40:35;;;;;;;5.90;3.23;;;3.50;99.90;;;;;;4960424;28;20230;-41
2023/04/27 04:43:03;;;;;;;4.70;3.77;;;3.50;99.90;;;;;;4922559;28;20268;-43
2023/04/27 04:45:30;;;;;;;9.80;4.10;;;3.60;99.90;;;;;;4922426;28;20325;-43
2023/04/27 04:48:02;;;;;;;9.17;3.87;;;3.60;99.90;;;;;;4976474;28;20951;-42
2023/04/27 04:50:30;;;;;;;7.67;3.23;;;3.70;99.90;;;;;;4981609;28;20771;-42
2023/04/27 04:52:56;;;;;;;8.53;3.80;;;3.70;99.90;;;;;;4928051;28;20218;-41
2023/04/27 04:55:26;;;;;;;8.67;3.60;;;3.80;99.90;;;;;;4929044;28;20244;-42
2023/04/27 04:57:54;;;;;;;9.30;3.40;;;3.80;99.90;;;;;;4928417;28;20233;-50
2023/04/27 05:00:21;;;;;;;5.93;3.57;;;3.80;99.90;;;;;;4958948;28;20206;-44
2023/04/27 05:02:50;;;;;;;6.40;3.50;;;3.90;99.90;;;;;;4937744;28;20272;-40
2023/04/27 05:05:18;;;;;;;5.87;3.73;;;3.90;99.90;;;;;;4974110;28;20190;-40
2023/04/27 05:07:45;;;;;;;5.77;3.33;;;3.90;99.90;;;;;;4955362;28;20863;-41
2023/04/27 05:10:13;;;;;;;7.97;3.63;;;3.90;99.90;;;;;;4946327;28;20283;-40
2023/04/27 05:12:40;;;;;;;5.57;3.50;;;4.00;99.90;;;;;;4943519;28;20460;-43
2023/04/27 05:15:08;;;;;;;6.97;3.50;;;4.00;99.90;;;;;;4948683;28;20202;-44
2023/04/27 05:17:34;;;;;;;8.43;4.17;;;4.00;99.90;;;;;;4942329;28;20206;-43
2023/04/27 05:20:03;;;;;;;5.17;3.87;;;4.10;99.90;;;;;;4955070;28;20202;-42
2023/04/27 05:22:35;;;;;;;7.83;3.77;;;4.20;99.90;;;;;;4932425;28;20206;-42
2023/04/27 05:25:03;;;;;;;5.43;3.90;;;4.20;99.90;;;;;;4936653;28;20241;-39
2023/04/27 05:27:31;;;;;;;6.00;3.60;;;4.10;99.90;;;;;;4955937;28;20570;-39
2023/04/27 05:29:59;;;;;;;6.83;4.13;;;4.20;99.90;;;;;;4947806;28;20208;-42
2023/04/27 05:32:25;;;;;;;5.50;3.90;;;4.20;99.90;;;;;;4950333;28;20214;-45
2023/04/27 05:34:53;;;;;;;9.77;4.37;;;4.20;99.90;;;;;;4948096;28;20623;-41
2023/04/27 05:37:19;;;;;;;6.17;4.00;;;4.30;99.90;;;;;;4965073;28;21131;-39
2023/04/27 05:39:48;;;;;;;8.23;4.33;;;4.30;99.90;;;;;;4950134;28;20300;-40
2023/04/27 05:42:15;;;;;;;11.03;4.20;;;4.40;99.90;;;;;;4940391;28;20213;-42
2023/04/27 05:44:42;;;;;;;5.87;3.90;;;4.40;99.90;;;;;;4955228;28;20339;-47
2023/04/27 05:47:10;;;;;;;6.83;3.40;;;4.50;99.90;;;;;;4948729;28;20237;-40
2023/04/27 05:49:36;;;;;;;6.73;3.20;;;4.60;99.90;;;;;;4943632;28;20214;-45
2023/04/27 05:52:03;;;;;;;7.27;4.10;;;4.70;99.90;;;;;;4957402;28;20719;-45
2023/04/27 05:54:31;;;;;;;8.70;3.13;;;4.70;99.90;;;;;;4952666;28;20210;-42
2023/04/27 05:56:59;;;;;;;4.77;3.30;;;4.80;99.90;;;;;;4949713;28;20237;-41
2023/04/27 05:59:28;;;;;;;6.57;3.43;;;4.80;99.90;;;;;;4955246;28;20233;-43
2023/04/27 06:01:55;;;;;;;6.40;3.63;;;4.80;99.90;;;;;;4962202;28;20202;-42
2023/04/27 06:04:23;;;;;;;7.07;3.87;;;5.00;99.90;;;;;;4949083;28;20205;-43
2023/04/27 06:06:50;;;;;;;6.60;3.90;;;5.00;99.90;;;;;;4944915;28;20256;-42
2023/04/27 06:09:17;;;;;;;4.67;3.47;;;5.10;99.90;;;;;;4956939;28;20210;-41
2023/04/27 06:11:45;;;;;;;4.17;3.43;;;5.20;99.90;;;;;;4960048;28;20206;-42
2023/04/27 06:14:15;;;;;;;4.73;3.07;;;5.20;99.90;;;;;;4944475;28;20284;-43
2023/04/27 06:16:42;;;;;;;3.70;3.10;;;5.30;99.90;;;;;;4954629;28;20233;-44
2023/04/27 06:19:09;;;;;;;3.50;3.20;;;5.40;99.90;;;;;;4944224;28;20340;-44
2023/04/27 06:21:35;;;;;;;4.20;3.00;;;5.40;99.90;;;;;;4948913;28;20206;-44
2023/04/27 06:24:03;;;;;;;8.03;3.27;;;5.50;99.90;;;;;;4966966;28;20218;-41
2023/04/27 06:26:30;;;;;;;5.33;2.60;;;5.50;99.90;;;;;;4958517;28;20229;-40
2023/04/27 06:28:57;;;;;;;3.63;2.57;;;5.60;99.90;;;;;;4952836;28;20194;-47
2023/04/27 06:31:26;;;;;;;7.10;3.10;;;5.60;99.90;;;;;;4952162;28;20210;-44
2023/04/27 06:33:53;;;;;;;5.60;3.50;;;5.70;99.90;;;;;;4947873;28;20205;-45
2023/04/27 06:36:20;;;;;;;4.87;2.27;;;5.70;99.90;;;;;;4928053;28;20222;-42
2023/04/27 06:38:47;;;;;;;6.67;2.40;;;5.80;99.90;;;;;;4963547;28;20642;-42
2023/04/27 06:41:14;;;;;;;4.47;2.73;;;5.90;99.90;;;;;;4957314;28;20214;-42
2023/04/27 06:43:41;;;;;;;4.63;2.57;;;6.00;99.90;;;;;;4956741;28;20209;-47
2023/04/27 06:46:08;;;;;;;3.13;2.30;;;6.00;99.90;;;;;;4951385;28;22938;-44
2023/04/27 06:48:37;;;;;;;4.17;1.90;;;6.20;99.90;;;;;;4957107;28;20190;-44
2023/04/27 06:51:04;;;;;;;4.43;2.50;;;6.20;99.90;;;;;;4938450;28;20996;-40
2023/04/27 06:53:31;;;;;;;4.23;2.10;;;6.30;99.90;;;;;;4971137;28;20201;-44
2023/04/27 06:55:58;;;;;;;3.17;2.23;;;6.40;99.90;;;;;;4954286;28;20979;-42
2023/04/27 06:58:25;;;;;;;6.17;2.43;;;6.50;99.90;;;;;;4951815;28;20229;-44
2023/04/27 07:00:53;;;;;;;5.27;2.50;;;6.50;99.90;;;;;;4955371;28;20225;-41
2023/04/27 07:03:20;;;;;;;3.20;2.30;;;6.50;99.90;;;;;;4950961;28;20206;-41
2023/04/27 07:05:50;;;;;;;3.83;2.30;;;6.60;99.90;;;;;;4946890;28;20229;-42
2023/04/27 07:08:17;;;;;;;3.53;2.50;;;6.70;99.90;;;;;;4967210;28;20214;-43
2023/04/27 07:10:44;;;;;;;5.07;2.30;;;6.80;99.90;;;;;;4959665;28;20210;-41
2023/04/27 07:13:11;;;;;;;1.93;1.83;;;6.80;99.90;;;;;;4956457;28;20217;-42
2023/04/27 07:15:38;;;;;;;4.70;2.17;;;6.90;99.90;;;;;;4948986;28;20252;-43
2023/04/27 07:18:05;;;;;;;2.93;2.60;;;7.00;99.90;;;;;;4950463;28;20222;-41
2023/04/27 07:20:32;;;;;;;5.63;1.80;;;7.20;99.90;;;;;;4964320;28;20249;-43
2023/04/27 07:23:00;;;;;;;4.37;2.43;;;7.20;99.90;;;;;;4944570;28;20209;-45
2023/04/27 07:25:28;;;;;;;5.23;2.40;;;7.30;99.90;;;;;;4978007;28;20217;-41
2023/04/27 07:27:55;;;;;;;3.40;2.20;;;7.30;99.90;;;;;;4948363;28;20575;-45
2023/04/27 07:30:22;;;;;;;2.63;1.80;;;7.40;99.90;;;;;;4946410;28;20296;-42
2023/04/27 07:32:53;;;;;;;3.40;2.27;;;7.50;99.90;;;;;;4959729;28;20194;-41
2023/04/27 07:35:21;;;;;;;3.83;2.07;;;7.50;99.90;;;;;;4967818;28;20929;-46
2023/04/27 07:37:48;;;;;;;7.27;2.00;;;7.60;99.90;;;;;;4952177;28;20209;-41
2023/04/27 07:40:17;;;;;;;4.87;1.90;;;7.70;99.90;;;;;;4977406;28;20213;-42
2023/04/27 07:42:45;;;;;;;5.27;1.87;;;7.70;99.90;;;;;;4952773;28;20249;-42
2023/04/27 07:45:12;;;;;;;5.10;1.93;;;7.80;99.90;;;;;;4951507;28;20217;-43
2023/04/27 07:47:39;;;;;;;3.93;1.93;;;7.70;99.90;;;;;;4965096;28;20194;-41
2023/04/27 07:50:08;;;;;;;6.30;1.97;;;7.70;99.90;;;;;;4960305;28;20196;-42
2023/04/27 07:52:36;;;;;;;4.03;2.27;;;7.60;99.90;;;;;;4967416;28;20194;-44
2023/04/27 07:55:02;;;;;;;3.03;1.63;;;7.60;99.90;;;;;;4949700;28;20281;-44
2023/04/27 07:57:31;;;;;;;2.80;2.17;;;7.70;99.90;;;;;;4953845;28;20297;-44
2023/04/27 07:59:58;;;;;;;5.73;2.13;;;7.90;99.90;;;;;;4957048;28;20230;-44
2023/04/27 08:02:29;;;;;;;2.43;2.20;;;8.10;99.90;;;;;;4960520;28;20678;-43
2023/04/27 08:04:56;;;;;;;3.50;2.03;;;8.30;99.90;;;;;;4956111;28;20841;-44
2023/04/27 08:07:23;;;;;;;7.07;2.20;;;8.30;99.90;;;;;;4967793;28;20214;-46
2023/04/27 08:09:51;;;;;;;4.87;2.07;;;8.30;99.90;;;;;;4939945;28;20213;-42
2023/04/27 08:12:18;;;;;;;2.57;1.60;;;8.40;99.90;;;;;;4955035;28;20202;-42
2023/04/27 08:14:47;;;;;;;5.33;2.23;;;8.50;99.90;;;;;;4960554;28;20206;-41
2023/04/27 08:17:14;;;;;;;3.43;1.87;;;8.50;99.90;;;;;;4959492;28;21044;-42
2023/04/27 08:19:41;;;;;;;2.27;1.70;;;8.30;99.90;;;;;;4963556;28;20217;-43
2023/04/27 08:22:08;;;;;;;3.30;1.30;;;8.30;99.90;;;;;;4960123;28;20201;-41
2023/04/27 08:24:35;;;;;;;2.90;1.70;;;8.30;99.90;;;;;;4959354;28;20225;-42
2023/04/27 08:27:03;;;;;;;5.97;2.07;;;8.30;99.90;;;;;;4948610;28;20307;-42
2023/04/27 08:29:29;;;;;;;5.83;1.70;;;8.30;99.90;;;;;;4952111;28;20256;-41
2023/04/27 08:32:00;;;;;;;2.43;1.50;;;8.20;99.90;;;;;;4956162;28;20354;-44
2023/04/27 08:34:27;;;;;;;4.17;1.60;;;8.20;99.90;;;;;;4949468;28;20217;-41
2023/04/27 08:36:54;;;;;;;4.60;1.63;;;8.10;99.90;;;;;;4952976;28;20305;-44
2023/04/27 08:39:21;;;;;;;5.33;1.80;;;8.20;99.90;;;;;;4960567;28;20234;-43
2023/04/27 08:41:48;;;;;;;6.10;1.90;;;8.20;99.90;;;;;;4948834;28;20205;-43
2023/04/27 08:44:15;;;;;;;5.80;2.00;;;8.20;99.90;;;;;;4967249;28;20213;-44
2023/04/27 08:46:42;;;;;;;6.53;1.87;;;8.30;99.90;;;;;;4958380;28;20236;-41
2023/04/27 08:49:11;;;;;;;3.07;1.97;;;8.40;99.90;;;;;;4961951;28;20389;-40
2023/04/27 08:51:39;;;;;;;8.13;2.30;;;8.60;99.90;;;;;;4959673;28;20201;-42
2023/04/27 08:54:05;;;;;;;6.67;2.13;;;9.00;99.90;;;;;;4953912;28;20281;-41
2023/04/27 08:56:32;;;;;;;3.67;1.80;;;9.20;99.90;;;;;;4969496;28;20210;-40
2023/04/27 08:59:02;;;;;;;3.77;2.00;;;9.30;99.90;;;;;;4939046;28;20229;-42
2023/04/27 09:01:31;;;;;;;5.37;1.60;;;9.10;99.90;;;;;;4959156;28;20301;-41
2023/04/27 09:03:58;;;;;;;3.23;1.63;;;9.00;99.90;;;;;;4954064;28;20984;-44
2023/04/27 09:06:35;;;;;;;2.13;1.67;;;9.00;99.90;;;;;;4953730;28;20300;-42
2023/04/27 09:09:03;;;;;;;2.53;1.73;;;9.00;99.90;;;;;;4954997;28;20933;-43
2023/04/27 09:11:32;;;;;;;2.53;1.53;;;8.80;99.90;;;;;;4967378;28;20205;-40
2023/04/27 09:14:00;;;;;;;3.57;1.70;;;8.80;99.90;;;;;;4936752;28;20217;-41
2023/04/27 09:16:28;;;;;;;6.13;2.27;;;8.70;99.90;;;;;;4967383;28;20718;-40
2023/04/27 09:18:56;;;;;;;4.07;1.30;;;8.70;99.90;;;;;;4948832;28;20238;-44
2023/04/27 09:21:23;;;;;;;5.33;1.80;;;8.70;99.90;;;;;;4949516;28;20202;-40
2023/04/27 09:23:52;;;;;;;2.13;1.63;;;8.70;99.90;;;;;;4956041;28;20214;-41
2023/04/27 09:26:21;;;;;;;4.97;1.23;;;8.70;99.90;;;;;;4965064;28;20717;-41
2023/04/27 09:28:50;;;;;;;2.73;2.03;;;8.80;99.90;;;;;;4947661;28;20202;-42
2023/04/27 09:31:17;;;;;;;2.23;1.60;;;9.00;99.90;;;;;;4950772;28;20711;-44
2023/04/27 09:33:46;;;;;;;5.53;1.93;;;9.10;99.90;;;;;;4954343;28;20234;-43
2023/04/27 09:36:14;;;;;;;2.57;1.80;;;9.30;99.90;;;;;;4961091;28;20312;-40
2023/04/27 09:38:40;;;;;;;3.37;2.00;;;9.40;99.90;;;;;;4952100;28;20264;-40
2023/04/27 09:41:09;;;;;;;4.90;2.37;;;9.30;99.90;;;;;;4962941;28;20214;-40
2023/04/27 09:43:38;;;;;;;4.70;1.80;;;9.30;99.90;;;;;;4962854;28;20198;-42
2023/04/27 09:46:05;;;;;;;2.40;1.73;;;9.30;99.90;;;;;;4934829;28;21982;-41
2023/04/27 09:48:32;;;;;;;1.63;1.53;;;9.30;99.90;;;;;;4946350;28;20241;-40
2023/04/27 09:50:59;;;;;;;3.27;1.60;;;9.30;99.90;;;;;;4951965;28;20190;-41
2023/04/27 09:53:30;;;;;;;3.87;1.40;;;9.40;99.90;;;;;;4937224;28;20599;-44
2023/04/27 09:56:13;;;;;;;3.50;1.63;;;9.40;99.90;;;;;;4961670;28;20936;-42
2023/04/27 09:58:58;;;;;;;1.83;1.50;;;9.50;99.90;;;;;;4964613;28;20202;-42
2023/04/27 10:01:33;;;;;;;1.67;1.50;;;9.60;99.90;;;;;;4929040;28;20280;-42
2023/04/27 10:04:15;;;;;;;1.90;1.30;;;9.70;99.90;;;;;;4953533;28;20300;-42
2023/04/27 10:07:00;;;;;;;4.50;1.53;;;9.90;99.90;;;;;;4955554;28;20867;-41
2023/04/27 10:09:30;;;;;;;1.97;1.47;;;10.00;99.90;;;;;;4962271;28;20197;-41
2023/04/27 10:12:12;;;;;;;1.97;1.30;;;10.10;99.90;;;;;;4961778;28;20194;-43
2023/04/27 10:14:50;;;;;;;1.80;1.70;;;10.10;99.90;;;;;;4957490;28;20205;-46
2023/04/27 10:17:17;;;;;;;2.57;1.40;;;10.00;99.70;;;;;;4939624;28;20240;-43
2023/04/27 10:19:56;;;;;;;3.77;1.50;;;10.00;99.90;;;;;;4965613;28;20301;-42
2023/04/27 10:22:23;;;;;;;1.83;1.57;;;10.10;97.70;;;;;;4952072;28;20621;-42
2023/04/27 10:24:51;;;;;;;2.07;1.20;;;10.10;98.70;;;;;;4954021;28;20214;-40
2023/04/27 10:27:21;;;;;;;2.80;1.50;;;10.00;98.10;;;;;;4960655;28;20302;-41
2023/04/27 10:29:50;;;;;;;1.30;1.20;;;10.10;98.10;;;;;;4936906;28;20228;-41
2023/04/27 10:32:22;;;;;;;1.40;1.30;;;10.20;97.70;;;;;;4942028;28;20221;-41
2023/04/27 10:34:49;;;;;;;2.13;1.60;;;10.40;96.90;;;;;;4953104;28;20281;-41
2023/04/27 10:37:20;;;;;;;3.27;1.40;;;10.50;96.20;;;;;;4930379;28;21385;-43
2023/04/27 10:39:47;;;;;;;4.97;1.60;;;10.50;95.60;;;;;;4954994;28;20214;-43
2023/04/27 10:42:14;;;;;;;2.23;1.60;;;10.30;95.20;;;;;;4942212;28;20198;-41
2023/04/27 10:44:40;;;;;;;4.20;1.70;;;10.10;95.50;;;;;;4954145;28;20202;-44
2023/04/27 10:47:18;;;;;;;1.83;1.63;;;10.00;96.10;;;;;;4944495;28;20300;-40
2023/04/27 10:49:45;;;;;;;3.17;1.40;;;10.10;96.50;;;;;;4969143;28;20197;-41
2023/04/27 10:52:12;;;;;;;1.57;1.47;;;10.00;97.00;;;;;;4946513;28;20209;-41
2023/04/27 10:54:39;;;;;;;5.83;1.63;;;10.00;97.20;;;;;;4962517;28;20210;-42
2023/04/27 10:57:08;;;;;;;2.17;1.33;;;9.90;97.00;;;;;;4941156;28;20250;-40
2023/04/27 10:59:47;;;;;;;2.67;1.53;;;9.70;97.10;;;;;;4955154;28;20225;-43
2023/04/27 11:02:15;;;;;;;2.00;1.87;;;9.60;97.50;;;;;;4960619;28;20209;-41
2023/04/27 11:04:42;;;;;;;3.07;1.73;;;9.60;98.10;;;;;;4943095;28;20217;-41
2023/04/27 11:07:10;;;;;;;1.80;1.70;;;9.60;99.10;;;;;;4943996;28;20221;-42
2023/04/27 11:09:38;;;;;;;2.47;1.77;;;9.60;99.90;;;;;;4950597;28;20194;-42
2023/04/27 11:12:07;;;;;;;1.97;1.50;;;9.60;99.90;;;;;;4948667;28;20202;-42
2023/04/27 11:14:35;;;;;;;2.53;1.83;;;9.60;99.80;;;;;;4956630;28;20301;-41
2023/04/27 11:17:03;;;;;;;2.53;1.70;;;9.60;99.90;;;;;;4961961;28;20690;-39
2023/04/27 11:19:31;;;;;;;4.27;2.03;;;9.80;99.90;;;;;;4947216;28;20209;-43
2023/04/27 11:22:06;;;;;;;2.20;1.97;;;9.90;99.90;;;;;;4952520;28;20243;-40
2023/04/27 11:24:33;;;;;;;5.37;2.63;;;9.80;99.90;;;;;;4959555;28;20214;-40
2023/04/27 11:27:01;;;;;;;3.10;2.53;;;9.70;99.90;;;;;;4950667;28;20234;-41
2023/04/27 11:29:38;;;;;;;3.47;2.70;;;9.60;99.90;;;;;;4966214;28;20201;-41
2023/04/27 11:32:05;;;;;;;4.37;2.40;;;9.80;99.90;;;;;;4962543;28;20569;-42
2023/04/27 11:34:37;;;;;;;4.77;2.57;;;10.00;99.90;;;;;;4933295;28;20228;-42
2023/04/27 11:37:07;;;;;;;3.90;2.83;;;10.30;99.90;;;;;;4944151;28;20249;-40
2023/04/27 11:39:35;;;;;;;3.37;2.07;;;10.50;99.90;;;;;;4941066;28;20206;-39
2023/04/27 11:42:17;;;;;;;2.50;1.67;;;10.40;99.90;;;;;;4960148;28;20209;-40
2023/04/27 11:44:51;;;;;;;3.87;1.80;;;10.20;98.00;;;;;;4952191;28;20289;-46
2023/04/27 11:47:18;;;;;;;3.80;2.10;;;10.20;99.90;;;;;;4951258;28;20228;-41
2023/04/27 11:49:48;;;;;;;6.23;1.83;;;10.40;99.70;;;;;;4951221;28;20230;-41
2023/04/27 11:52:15;;;;;;;2.73;1.80;;;10.50;99.50;;;;;;4924644;28;20198;-42
2023/04/27 11:54:47;;;;;;;1.93;1.83;;;10.60;98.90;;;;;;4954184;28;20222;-41
2023/04/27 11:57:15;;;;;;;6.03;1.83;;;10.60;98.60;;;;;;4953965;28;20226;-40
2023/04/27 11:59:42;;;;;;;4.47;1.77;;;10.70;98.60;;;;;;4947575;28;20206;-43
2023/04/27 12:02:09;;;;;;;2.77;1.70;;;10.70;98.10;;;;;;4953877;28;20231;-45
2023/04/27 12:04:36;;;;;;;1.53;1.40;;;10.70;97.80;;;;;;4956802;28;20725;-40
2023/04/27 12:07:04;;;;;;;2.10;1.90;;;10.70;97.90;;;;;;4924936;28;20236;-38
2023/04/27 12:09:31;;;;;;;2.30;2.10;;;10.80;97.80;;;;;;4951633;28;20300;-43
2023/04/27 12:11:59;;;;;;;3.70;2.17;;;10.80;97.90;;;;;;4956404;28;20209;-41
2023/04/27 12:14:25;;;;;;;1.77;1.67;;;10.80;98.30;;;;;;4952950;28;20207;-42
2023/04/27 12:16:52;;;;;;;3.77;2.43;;;10.70;97.80;;;;;;4960553;28;20233;-39
2023/04/27 12:19:19;;;;;;;2.37;2.10;;;10.60;97.70;;;;;;4956081;28;20194;-41
2023/04/27 12:21:46;;;;;;;2.47;2.03;;;10.60;98.20;;;;;;4942504;28;20300;-43
2023/04/27 12:24:14;;;;;;;4.80;1.87;;;10.70;98.40;;;;;;4943961;28;20206;-43
2023/04/27 12:26:41;;;;;;;1.93;1.83;;;10.70;98.50;;;;;;4958963;28;20313;-42
2023/04/27 12:29:08;;;;;;;3.20;1.80;;;10.70;98.80;;;;;;4954708;28;20206;-40
2023/04/27 12:31:35;;;;;;;2.10;1.80;;;10.70;99.00;;;;;;4957677;28;20205;-39
2023/04/27 12:34:01;;;;;;;4.60;2.20;;;10.70;99.00;;;;;;4950716;28;20298;-40
2023/04/27 12:36:28;;;;;;;2.57;1.80;;;10.80;99.10;;;;;;4951496;28;20233;-42
2023/04/27 12:38:58;;;;;;;2.30;1.93;;;10.80;98.70;;;;;;4953914;28;20717;-39
2023/04/27 12:41:27;;;;;;;3.37;1.87;;;10.70;98.80;;;;;;4959191;28;20442;-44
2023/04/27 12:43:53;;;;;;;3.17;1.80;;;10.50;98.70;;;;;;4965227;28;20229;-42
2023/04/27 12:46:21;;;;;;;4.03;2.20;;;10.50;98.90;;;;;;4951271;28;20214;-40
2023/04/27 12:48:47;;;;;;;3.53;2.03;;;10.40;99.00;;;;;;4954530;28;20210;-41
2023/04/27 12:51:15;;;;;;;3.03;2.00;;;10.40;99.20;;;;;;4963075;28;20942;-40
2023/04/27 12:53:42;;;;;;;3.77;1.90;;;10.40;98.90;;;;;;4938892;28;20216;-40
2023/04/27 12:56:09;;;;;;;2.27;2.07;;;10.40;98.80;;;;;;4953727;28;20220;-40
2023/04/27 12:58:38;;;;;;;2.30;2.10;;;10.20;99.20;;;;;;4959866;28;20288;-40
2023/04/27 13:01:13;;;;;;;2.60;2.20;;;10.20;99.20;;;;;;4948123;28;20269;-39